RTM weather

Rotterdam The Hague Airport
Rotterdam, Zuid-Holland, Netherlands

Public forecast

Using degrees Celsius for public forecast. Weather courtesy of forecast.io.

Current aviation weather report (METAR) for Rotterdam The Hague Airport

Retrieved 2020/05/29 09:55 UTC (18 minutes ago):

EHRD 290955Z AUTO 06007KT 360V130 9999 NSC 17/04 Q1029 NOSIG

Aviation forecast (TAF) for Rotterdam The Hague Airport

Retrieved 2020/05/29 06:27 UTC (4 hours ago):

TAF EHRD 290455Z 2906/3012 06008KT CAVOK